Time;durP1;ratioP1;P1;durP2;ratioP2;P2;SDS_P1;SDS_P2;PMS_P1;PMS_P2;Temp;Humidity;BMP_temperature;BMP_pressure;BME280_temperature;BME280_humidity;BME280_pressure;Samples;Min_cycle;Max_cycle;Signal;HPM_P1;HPM_P2
2023/05/30 00:01:21;;;;;;;14.07;3.33;;;10.50;99.90;;;;;;5115956;27;20046;-46
2023/05/30 00:03:48;;;;;;;11.90;2.83;;;10.50;99.90;;;;;;5136123;27;20043;-46
2023/05/30 00:06:15;;;;;;;18.67;3.35;;;10.40;99.90;;;;;;5134143;27;20514;-49
2023/05/30 00:08:42;;;;;;;18.83;4.35;;;10.30;99.90;;;;;;5135824;27;20051;-48
2023/05/30 00:11:09;;;;;;;13.70;3.03;;;10.50;99.90;;;;;;5134148;27;20121;-46
2023/05/30 00:13:35;;;;;;;17.70;4.03;;;10.40;99.90;;;;;;5134654;27;20574;-47
2023/05/30 00:16:03;;;;;;;15.13;2.75;;;10.30;99.90;;;;;;5135672;27;20050;-45
2023/05/30 00:18:34;;;;;;;14.45;2.83;;;10.50;99.90;;;;;;5136716;27;20043;-47
2023/05/30 00:21:03;;;;;;;13.25;3.08;;;10.40;99.90;;;;;;5134011;27;20285;-47
2023/05/30 00:23:31;;;;;;;14.65;3.67;;;10.50;99.90;;;;;;5136656;27;20095;-48
2023/05/30 00:25:57;;;;;;;15.35;3.58;;;10.40;99.90;;;;;;5135392;27;20066;-46
2023/05/30 00:28:24;;;;;;;11.68;2.90;;;10.30;99.90;;;;;;5135039;27;20047;-47
2023/05/30 00:30:50;;;;;;;14.07;3.08;;;10.30;99.90;;;;;;5135060;27;20455;-46
2023/05/30 00:33:16;;;;;;;13.10;3.33;;;10.30;99.90;;;;;;5136187;27;20035;-48
2023/05/30 00:35:42;;;;;;;16.48;3.30;;;10.30;99.90;;;;;;5134856;27;20034;-49
2023/05/30 00:38:07;;;;;;;13.57;2.70;;;10.20;99.90;;;;;;5135504;27;20383;-47
2023/05/30 00:40:33;;;;;;;15.55;3.30;;;10.40;99.90;;;;;;5135014;27;20058;-47
2023/05/30 00:42:59;;;;;;;14.93;3.17;;;10.30;99.90;;;;;;5135866;27;20027;-48
2023/05/30 00:45:25;;;;;;;14.45;3.30;;;10.40;99.90;;;;;;5134700;27;20456;-45
2023/05/30 00:47:53;;;;;;;11.70;2.95;;;10.30;99.90;;;;;;5135802;27;20070;-46
2023/05/30 00:50:20;;;;;;;10.70;2.97;;;10.30;99.90;;;;;;5136520;27;20039;-47
2023/05/30 00:52:49;;;;;;;12.15;3.50;;;10.30;99.90;;;;;;5117547;27;20494;-50
2023/05/30 00:55:19;;;;;;;13.60;2.90;;;10.30;99.90;;;;;;5137273;27;20317;-45
2023/05/30 00:57:46;;;;;;;15.93;3.45;;;10.30;99.90;;;;;;5135534;27;20062;-46
2023/05/30 01:00:13;;;;;;;13.57;3.10;;;10.20;99.90;;;;;;5134223;27;20078;-50
2023/05/30 01:02:39;;;;;;;16.40;4.15;;;10.20;99.90;;;;;;5116102;27;20057;-46
2023/05/30 01:05:05;;;;;;;15.57;3.67;;;10.20;99.90;;;;;;5134637;27;22063;-47
2023/05/30 01:07:33;;;;;;;12.05;3.05;;;8.90;99.90;;;;;;5135278;27;20348;-47
2023/05/30 01:09:59;;;;;;;14.68;3.20;;;10.20;99.90;;;;;;5135161;27;20374;-47
2023/05/30 01:12:47;;;;;;;13.93;3.15;;;10.10;99.90;;;;;;5134301;27;20063;-55
2023/05/30 01:15:32;;;;;;;19.25;3.45;;;10.20;99.90;;;;;;5134351;27;20523;-47
2023/05/30 01:18:13;;;;;;;15.55;3.47;;;10.10;99.90;;;;;;5134115;27;20038;-47
2023/05/30 01:20:44;;;;;;;12.55;2.97;;;10.20;99.90;;;;;;5134133;27;20130;-47
2023/05/30 01:23:18;;;;;;;14.38;3.22;;;10.00;99.90;;;;;;5135742;27;20173;-49
2023/05/30 01:25:50;;;;;;;14.48;3.45;;;10.30;99.90;;;;;;5133641;27;20193;-50
2023/05/30 01:28:20;;;;;;;11.13;3.13;;;10.30;99.90;;;;;;5135381;27;20058;-51
2023/05/30 01:30:52;;;;;;;13.18;3.35;;;10.20;99.90;;;;;;5116709;27;20212;-48
2023/05/30 01:33:21;;;;;;;12.57;3.65;;;10.20;99.90;;;;;;5134092;27;20050;-50
2023/05/30 01:35:48;;;;;;;16.10;2.95;;;10.20;99.90;;;;;;5132756;27;20091;-49
2023/05/30 01:38:14;;;;;;;11.60;3.33;;;10.20;99.90;;;;;;5134582;27;20035;-50
2023/05/30 01:40:42;;;;;;;14.45;3.33;;;10.20;99.90;;;;;;5133231;27;20094;-50
2023/05/30 01:43:19;;;;;;;14.93;3.47;;;10.20;99.90;;;;;;5132985;27;20075;-48
2023/05/30 01:46:18;;;;;;;12.52;3.10;;;10.20;99.90;;;;;;5132415;27;20559;-46
2023/05/30 01:48:49;;;;;;;14.15;3.50;;;8.80;99.90;;;;;;5134266;27;20089;-50
2023/05/30 01:51:21;;;;;;;13.07;3.15;;;10.10;99.90;;;;;;5134532;27;20438;-47
2023/05/30 01:53:55;;;;;;;;;;;10.30;99.90;;;;;;5134931;27;20183;-50
2023/05/30 01:56:22;;;;;;;14.55;4.07;;;10.10;99.90;;;;;;5132944;27;19923;-49
2023/05/30 01:58:50;;;;;;;10.20;3.25;;;10.20;99.90;;;;;;5133216;27;20971;-48
2023/05/30 02:01:17;;;;;;;14.95;3.35;;;10.10;99.90;;;;;;5134152;27;20114;-49
2023/05/30 02:03:42;;;;;;;16.40;3.38;;;10.10;99.90;;;;;;5115891;27;20611;-50
2023/05/30 02:06:08;;;;;;;11.82;3.42;;;10.30;99.90;;;;;;5132627;27;20183;-47
2023/05/30 02:08:34;;;;;;;10.25;3.45;;;10.20;99.90;;;;;;5133813;27;20106;-49
2023/05/30 02:11:00;;;;;;;12.38;3.40;;;10.00;99.90;;;;;;5133333;27;20083;-49
2023/05/30 02:13:25;;;;;;;12.35;3.15;;;12.00;99.90;;;;;;5133503;27;20035;-51
2023/05/30 02:15:51;;;;;;;12.55;3.13;;;12.00;99.90;;;;;;5133043;27;20062;-51
2023/05/30 02:18:17;;;;;;;14.45;3.75;;;10.30;99.90;;;;;;5133749;27;20043;-50
2023/05/30 02:20:43;;;;;;;13.43;3.65;;;10.30;99.90;;;;;;5134465;27;20031;-50
2023/05/30 02:23:09;;;;;;;13.25;3.60;;;8.90;99.90;;;;;;5135315;27;20133;-48
2023/05/30 02:25:35;;;;;;;14.50;3.60;;;10.30;99.90;;;;;;5116425;27;20117;-52
2023/05/30 02:28:01;;;;;;;12.00;2.80;;;10.20;99.90;;;;;;5133813;27;20367;-49
2023/05/30 02:30:27;;;;;;;17.17;3.95;;;10.10;99.90;;;;;;5133751;27;20410;-48
2023/05/30 02:32:53;;;;;;;12.65;3.42;;;10.20;99.90;;;;;;5132988;27;20045;-49
2023/05/30 02:35:19;;;;;;;15.65;2.90;;;10.30;99.90;;;;;;5131634;27;20039;-47
2023/05/30 02:37:45;;;;;;;10.95;3.13;;;10.10;99.90;;;;;;5132130;27;22243;-48
2023/05/30 02:40:11;;;;;;;12.05;3.10;;;10.20;99.90;;;;;;5133452;27;20081;-51
2023/05/30 02:42:37;;;;;;;12.93;3.50;;;10.20;99.90;;;;;;5132709;27;20398;-51
2023/05/30 02:45:03;;;;;;;15.95;3.50;;;10.30;99.90;;;;;;5132684;27;20049;-50
2023/05/30 02:47:29;;;;;;;14.65;3.95;;;10.20;99.90;;;;;;5131112;27;20142;-50
2023/05/30 02:49:55;;;;;;;18.40;3.13;;;10.20;99.90;;;;;;5132418;27;20039;-48
2023/05/30 02:52:21;;;;;;;15.43;3.40;;;10.30;99.90;;;;;;5131170;27;20074;-48
2023/05/30 02:54:48;;;;;;;11.13;3.92;;;10.20;99.90;;;;;;5114093;27;20046;-50
2023/05/30 02:57:15;;;;;;;13.52;3.85;;;10.10;99.90;;;;;;5112756;27;20053;-48
2023/05/30 02:59:41;;;;;;;14.90;3.78;;;10.30;99.90;;;;;;5131162;27;20042;-50
2023/05/30 03:02:07;;;;;;;23.77;3.88;;;10.30;99.90;;;;;;5115052;27;20038;-50
2023/05/30 03:04:32;;;;;;;10.82;2.45;;;10.40;99.90;;;;;;5131788;27;20505;-47
2023/05/30 03:06:59;;;;;;;14.13;3.65;;;10.30;99.90;;;;;;5131748;27;20046;-46
2023/05/30 03:09:24;;;;;;;15.43;4.10;;;10.30;99.90;;;;;;5131094;27;20037;-47
2023/05/30 03:11:50;;;;;;;13.98;3.60;;;10.30;99.90;;;;;;5133056;27;20047;-50
2023/05/30 03:14:16;;;;;;;17.55;4.13;;;10.20;99.90;;;;;;5132276;27;20487;-50
2023/05/30 03:16:42;;;;;;;12.98;3.35;;;10.20;99.90;;;;;;5131528;27;20039;-47
2023/05/30 03:19:08;;;;;;;19.75;4.57;;;10.20;99.90;;;;;;5132358;27;20042;-49
2023/05/30 03:21:36;;;;;;;19.95;3.80;;;10.20;99.90;;;;;;5132148;27;20049;-49
2023/05/30 03:24:02;;;;;;;18.23;4.47;;;10.40;99.90;;;;;;5132035;27;20046;-50
2023/05/30 03:26:28;;;;;;;14.63;3.60;;;10.20;99.90;;;;;;5132719;27;20063;-51
2023/05/30 03:28:54;;;;;;;13.00;3.92;;;10.40;99.90;;;;;;5133302;27;20043;-47
2023/05/30 03:31:20;;;;;;;14.43;3.65;;;10.30;99.90;;;;;;5132428;27;20070;-49
2023/05/30 03:33:46;;;;;;;18.63;4.60;;;10.40;99.90;;;;;;5131173;27;20051;-48
2023/05/30 03:36:12;;;;;;;17.20;4.03;;;10.20;99.90;;;;;;5112582;27;20031;-49
2023/05/30 03:38:39;;;;;;;20.20;4.25;;;10.20;99.90;;;;;;5132358;27;20070;-50
2023/05/30 03:41:05;;;;;;;14.23;5.00;;;10.20;99.90;;;;;;5131790;27;20058;-51
2023/05/30 03:43:31;;;;;;;13.57;3.63;;;10.30;99.90;;;;;;5131406;27;20139;-50
2023/05/30 03:45:57;;;;;;;14.55;4.07;;;10.30;99.90;;;;;;5113317;27;20321;-47
2023/05/30 03:48:23;;;;;;;17.63;3.95;;;10.40;99.90;;;;;;5133415;27;20047;-52
2023/05/30 03:50:48;;;;;;;18.45;3.90;;;10.30;99.90;;;;;;5113886;27;20069;-48
2023/05/30 03:53:14;;;;;;;16.70;4.63;;;10.50;99.90;;;;;;5112942;27;20035;-49
2023/05/30 03:55:40;;;;;;;17.55;3.47;;;10.30;99.90;;;;;;5135029;27;20272;-51
2023/05/30 03:58:06;;;;;;;16.42;4.00;;;10.60;99.90;;;;;;5130866;27;20129;-47
2023/05/30 04:00:31;;;;;;;15.95;4.30;;;10.30;99.90;;;;;;5132532;27;20069;-46
2023/05/30 04:03:00;;;;;;;16.67;3.92;;;10.40;99.90;;;;;;5132626;27;20513;-47
2023/05/30 04:05:26;;;;;;;15.25;3.65;;;10.30;99.90;;;;;;5112690;27;20031;-50
2023/05/30 04:07:52;;;;;;;14.80;3.40;;;10.50;99.90;;;;;;5131293;27;20054;-48
2023/05/30 04:10:17;;;;;;;14.82;3.58;;;10.40;99.90;;;;;;5131745;27;20038;-46
2023/05/30 04:12:43;;;;;;;20.58;3.42;;;10.60;99.90;;;;;;5132169;27;20034;-49
2023/05/30 04:15:10;;;;;;;14.52;3.40;;;10.50;99.90;;;;;;5131554;27;20062;-47
2023/05/30 04:17:36;;;;;;;15.10;4.18;;;10.40;99.90;;;;;;5131394;27;20043;-54
2023/05/30 04:20:04;;;;;;;14.90;3.53;;;10.50;99.90;;;;;;5131109;27;20035;-49
2023/05/30 04:22:30;;;;;;;20.30;4.25;;;10.50;99.90;;;;;;5131198;27;20055;-52
2023/05/30 04:24:56;;;;;;;16.33;4.55;;;10.60;99.90;;;;;;5134026;27;20046;-46
2023/05/30 04:27:24;;;;;;;18.02;4.20;;;12.50;99.90;;;;;;5133390;27;20061;-47
2023/05/30 04:29:50;;;;;;;12.30;3.72;;;10.60;99.90;;;;;;5129641;27;20774;-49
2023/05/30 04:32:16;;;;;;;12.98;3.60;;;10.60;99.90;;;;;;5131594;27;20159;-50
2023/05/30 04:34:43;;;;;;;17.67;4.03;;;10.60;99.90;;;;;;5131722;27;20042;-48
2023/05/30 04:37:11;;;;;;;18.75;3.47;;;10.60;99.90;;;;;;5134692;27;20054;-52
2023/05/30 04:39:38;;;;;;;17.08;4.05;;;10.90;99.90;;;;;;5135320;27;20496;-50
2023/05/30 04:42:04;;;;;;;15.45;3.88;;;10.80;99.90;;;;;;5134237;27;20087;-49
2023/05/30 04:44:37;;;;;;;13.13;3.40;;;10.70;99.90;;;;;;5116251;27;20103;-47
2023/05/30 04:47:08;;;;;;;12.30;3.95;;;10.80;99.90;;;;;;5133988;27;20057;-46
2023/05/30 04:49:41;;;;;;;18.65;4.38;;;10.80;99.90;;;;;;5134671;27;20038;-49
2023/05/30 04:52:07;;;;;;;14.23;3.85;;;10.90;99.90;;;;;;5115890;27;20057;-47
2023/05/30 04:54:33;;;;;;;13.10;3.67;;;10.80;99.90;;;;;;5135148;27;20046;-55
2023/05/30 04:56:59;;;;;;;16.42;3.97;;;10.80;99.90;;;;;;5136909;27;20027;-48
2023/05/30 04:59:25;;;;;;;18.00;3.97;;;10.90;99.90;;;;;;5134870;27;20043;-47
2023/05/30 05:01:52;;;;;;;16.65;3.60;;;11.00;99.90;;;;;;5133926;27;20103;-45
2023/05/30 05:04:18;;;;;;;17.58;3.55;;;10.80;99.90;;;;;;5116778;27;20054;-47
2023/05/30 05:06:43;;;;;;;16.17;3.88;;;10.70;99.90;;;;;;5135434;27;20856;-51
2023/05/30 05:09:10;;;;;;;16.02;3.80;;;10.80;99.90;;;;;;5134466;27;20598;-49
2023/05/30 05:11:36;;;;;;;14.27;3.28;;;11.10;99.90;;;;;;5115408;27;20081;-49
2023/05/30 05:14:02;;;;;;;12.00;3.28;;;10.90;99.90;;;;;;5134432;27;20031;-45
2023/05/30 05:16:28;;;;;;;18.73;4.32;;;10.90;99.90;;;;;;5134516;27;20031;-50
2023/05/30 05:18:54;;;;;;;12.95;3.50;;;10.90;99.90;;;;;;5133234;27;20102;-49
2023/05/30 05:21:20;;;;;;;14.65;4.00;;;11.10;99.90;;;;;;5133150;27;20046;-47
2023/05/30 05:23:45;;;;;;;15.90;4.28;;;11.00;99.90;;;;;;5134425;27;20483;-47
2023/05/30 05:26:11;;;;;;;13.93;3.83;;;11.00;99.90;;;;;;5135214;27;20515;-49
2023/05/30 05:28:37;;;;;;;17.88;3.83;;;11.00;99.90;;;;;;5132397;27;20103;-51
2023/05/30 05:31:03;;;;;;;14.00;3.72;;;11.00;99.90;;;;;;5133860;27;20078;-49
2023/05/30 05:33:28;;;;;;;16.25;3.35;;;11.10;99.90;;;;;;5134869;27;20066;-51
2023/05/30 05:35:54;;;;;;;18.08;3.63;;;10.90;99.90;;;;;;5132745;27;20103;-50
2023/05/30 05:38:20;;;;;;;15.82;3.33;;;10.90;99.90;;;;;;5133713;27;20042;-49
2023/05/30 05:40:46;;;;;;;12.20;4.03;;;11.10;99.90;;;;;;5134441;27;20037;-51
2023/05/30 05:43:12;;;;;;;14.93;3.38;;;11.00;99.90;;;;;;5133497;27;20053;-46
2023/05/30 05:45:38;;;;;;;14.23;3.10;;;11.00;99.90;;;;;;5133148;27;20043;-49
2023/05/30 05:48:04;;;;;;;13.77;3.17;;;11.10;99.90;;;;;;5133503;27;20039;-47
2023/05/30 05:50:30;;;;;;;10.25;2.95;;;10.80;99.90;;;;;;5133513;27;20122;-54
2023/05/30 05:52:56;;;;;;;13.73;3.08;;;11.20;99.90;;;;;;5133664;27;20038;-51
2023/05/30 05:55:22;;;;;;;10.63;3.03;;;11.10;99.90;;;;;;5133869;27;20099;-52
2023/05/30 05:57:47;;;;;;;13.38;3.25;;;11.20;99.90;;;;;;5108434;27;20569;-46
2023/05/30 06:00:14;;;;;;;12.10;3.15;;;11.00;99.90;;;;;;5133642;27;20823;-52
2023/05/30 06:02:39;;;;;;;15.52;3.17;;;11.20;99.90;;;;;;5133236;27;20039;-49
2023/05/30 06:05:06;;;;;;;12.88;2.90;;;11.00;99.90;;;;;;5132601;27;20026;-50
2023/05/30 06:07:32;;;;;;;12.18;2.88;;;11.20;99.90;;;;;;5133130;27;20184;-49
2023/05/30 06:09:58;;;;;;;10.43;2.95;;;11.10;99.90;;;;;;5134734;27;20051;-52
2023/05/30 06:12:24;;;;;;;11.55;3.50;;;11.10;99.90;;;;;;5133725;27;20091;-49
2023/05/30 06:14:49;;;;;;;12.02;3.33;;;11.30;99.90;;;;;;5132621;27;20180;-50
2023/05/30 06:17:15;;;;;;;10.32;2.78;;;11.20;99.90;;;;;;5114871;27;20047;-50
2023/05/30 06:19:41;;;;;;;14.07;3.20;;;12.00;99.90;;;;;;5133553;27;20034;-50
2023/05/30 06:22:08;;;;;;;9.25;2.95;;;11.20;99.90;;;;;;5133848;27;20078;-50
2023/05/30 06:24:34;;;;;;;10.35;3.60;;;11.30;99.90;;;;;;5134021;27;20039;-49
2023/05/30 06:27:00;;;;;;;12.48;3.22;;;11.50;99.90;;;;;;5134210;27;20064;-52
2023/05/30 06:29:27;;;;;;;11.63;2.75;;;11.40;99.90;;;;;;5132978;27;20331;-50
2023/05/30 06:31:54;;;;;;;11.18;3.08;;;11.40;99.90;;;;;;5134203;27;20042;-50
2023/05/30 06:34:19;;;;;;;9.13;2.80;;;11.50;99.90;;;;;;5131021;27;20692;-52
2023/05/30 06:36:45;;;;;;;13.10;2.60;;;11.20;99.90;;;;;;5116199;27;20094;-49
2023/05/30 06:39:15;;;;;;;11.52;2.58;;;11.30;99.90;;;;;;5134469;27;20042;-51
2023/05/30 06:41:44;;;;;;;9.38;2.13;;;11.40;99.90;;;;;;5133725;27;20095;-51
2023/05/30 06:44:10;;;;;;;9.25;2.55;;;11.40;99.90;;;;;;5133364;27;20042;-53
2023/05/30 06:46:37;;;;;;;9.32;2.35;;;11.30;99.90;;;;;;5131736;27;20495;-51
2023/05/30 06:49:03;;;;;;;11.05;2.50;;;11.30;99.90;;;;;;5133127;27;20038;-48
2023/05/30 06:51:30;;;;;;;13.70;2.53;;;11.60;99.90;;;;;;5133007;27;20042;-52
2023/05/30 06:53:57;;;;;;;7.78;2.13;;;11.50;99.90;;;;;;5132223;27;20034;-48
2023/05/30 06:56:23;;;;;;;10.07;2.42;;;11.70;99.90;;;;;;5133710;27;20057;-48
2023/05/30 06:58:49;;;;;;;5.80;1.90;;;11.30;99.90;;;;;;5132485;27;20476;-49
2023/05/30 07:01:15;;;;;;;6.95;1.80;;;11.50;99.90;;;;;;5132568;27;20035;-47
2023/05/30 07:03:40;;;;;;;9.10;2.20;;;11.40;99.90;;;;;;5134017;27;20407;-50
2023/05/30 07:06:06;;;;;;;8.90;2.60;;;11.50;99.90;;;;;;5111843;27;20129;-50
2023/05/30 07:08:32;;;;;;;8.27;2.40;;;11.50;99.90;;;;;;5111072;27;20047;-50
2023/05/30 07:10:58;;;;;;;6.25;1.80;;;11.70;99.90;;;;;;5131936;27;20134;-50
2023/05/30 07:13:23;;;;;;;9.95;2.50;;;11.50;99.90;;;;;;5130749;27;20038;-51
2023/05/30 07:15:49;;;;;;;7.68;2.22;;;11.70;99.90;;;;;;5130963;27;20510;-52
2023/05/30 07:18:15;;;;;;;6.90;1.98;;;11.60;99.90;;;;;;5130779;27;20051;-48
2023/05/30 07:20:40;;;;;;;8.23;2.25;;;11.50;99.90;;;;;;5112956;27;20058;-52
2023/05/30 07:23:06;;;;;;;8.50;2.40;;;11.50;99.90;;;;;;5133158;27;20077;-50
2023/05/30 07:25:32;;;;;;;8.48;2.10;;;13.30;99.90;;;;;;5132797;27;20046;-48
2023/05/30 07:27:59;;;;;;;17.83;2.22;;;11.30;99.90;;;;;;5132173;27;20050;-52
2023/05/30 07:30:25;;;;;;;8.85;2.10;;;11.60;99.90;;;;;;5131640;27;20054;-48
2023/05/30 07:32:51;;;;;;;6.88;1.98;;;11.30;99.90;;;;;;5132745;27;20046;-49
2023/05/30 07:35:16;;;;;;;9.57;2.40;;;11.60;99.90;;;;;;5131908;27;20046;-50
2023/05/30 07:37:42;;;;;;;8.48;2.40;;;11.50;99.90;;;;;;5131035;27;20496;-51
2023/05/30 07:40:08;;;;;;;10.98;2.15;;;11.40;99.90;;;;;;5131300;27;20436;-48
2023/05/30 07:42:37;;;;;;;5.97;3.08;;;11.70;99.90;;;;;;5133323;27;20049;-49
2023/05/30 07:45:03;;;;;;;7.47;2.35;;;11.80;99.90;;;;;;5133343;27;20038;-47
2023/05/30 07:47:29;;;;;;;8.13;2.30;;;11.70;99.90;;;;;;5131994;27;20035;-49
2023/05/30 07:49:55;;;;;;;6.45;2.22;;;11.80;99.90;;;;;;5132449;27;20047;-52
2023/05/30 07:52:21;;;;;;;6.38;1.90;;;11.80;99.90;;;;;;5133320;27;20556;-51
2023/05/30 07:54:48;;;;;;;6.40;1.92;;;12.00;99.90;;;;;;5132175;27;20495;-52
2023/05/30 07:57:14;;;;;;;5.32;1.65;;;12.00;99.90;;;;;;5135017;27;20053;-52
2023/05/30 07:59:41;;;;;;;10.13;1.95;;;12.00;99.90;;;;;;5132762;27;20120;-51
2023/05/30 08:02:07;;;;;;;7.30;1.83;;;12.10;99.90;;;;;;5132374;27;20159;-52
2023/05/30 08:04:33;;;;;;;7.72;1.90;;;11.90;99.90;;;;;;5132837;27;20043;-53
2023/05/30 08:06:59;;;;;;;4.47;1.30;;;12.10;99.90;;;;;;5132453;27;20043;-50
2023/05/30 08:09:25;;;;;;;3.80;1.15;;;11.90;99.90;;;;;;5130515;27;20487;-51
2023/05/30 08:11:52;;;;;;;1.67;0.57;;;12.10;99.90;;;;;;5098070;27;20759;-50
2023/05/30 08:14:17;;;;;;;3.65;1.00;;;12.00;99.90;;;;;;5134839;27;20051;-49
2023/05/30 08:16:43;;;;;;;3.70;0.70;;;11.90;99.90;;;;;;5135484;27;20517;-53
2023/05/30 08:19:09;;;;;;;1.92;0.95;;;11.90;99.90;;;;;;5133987;27;20057;-49
2023/05/30 08:21:36;;;;;;;3.28;0.80;;;11.90;99.90;;;;;;5135775;27;20142;-53
2023/05/30 08:24:02;;;;;;;3.50;0.80;;;12.30;99.90;;;;;;5135845;27;20073;-51
2023/05/30 08:26:31;;;;;;;3.72;1.10;;;12.40;99.90;;;;;;5135988;27;20082;-53
2023/05/30 08:28:57;;;;;;;2.95;1.00;;;12.60;99.90;;;;;;5134091;27;20486;-52
2023/05/30 08:31:23;;;;;;;4.85;1.83;;;12.90;99.90;;;;;;5135085;27;20286;-49
2023/05/30 08:33:49;;;;;;;5.03;1.10;;;13.10;99.90;;;;;;5135492;27;20051;-47
2023/05/30 08:36:15;;;;;;;3.30;1.27;;;13.30;99.90;;;;;;5135597;27;20121;-53
2023/05/30 08:38:41;;;;;;;5.15;1.17;;;13.60;99.90;;;;;;5116413;27;20113;-51
2023/05/30 08:41:07;;;;;;;2.28;0.80;;;13.80;99.90;;;;;;5135295;27;20107;-51
2023/05/30 08:43:33;;;;;;;2.60;0.88;;;13.60;99.90;;;;;;5135416;27;20042;-50
2023/05/30 08:45:59;;;;;;;3.28;1.23;;;13.70;99.90;;;;;;5135017;27;20034;-49
2023/05/30 08:48:28;;;;;;;4.28;0.80;;;13.50;99.90;;;;;;5133312;27;20031;-50
2023/05/30 08:50:54;;;;;;;3.33;0.70;;;13.40;99.90;;;;;;5133884;27;20035;-49
2023/05/30 08:53:49;;;;;;;3.63;1.42;;;13.30;99.90;;;;;;5117191;27;20130;-49
2023/05/30 08:56:29;;;;;;;3.05;0.90;;;13.40;99.90;;;;;;5132814;27;20243;-52
2023/05/30 08:58:57;;;;;;;2.47;0.90;;;13.20;99.90;;;;;;5136075;27;20054;-53
2023/05/30 09:01:24;;;;;;;5.00;0.90;;;13.30;99.90;;;;;;5134382;27;20447;-48
2023/05/30 09:03:51;;;;;;;2.00;0.93;;;13.20;99.90;;;;;;5116928;27;20042;-49
2023/05/30 09:06:18;;;;;;;2.58;0.85;;;13.20;99.90;;;;;;5134070;27;20183;-51
2023/05/30 09:08:45;;;;;;;1.48;0.70;;;13.20;99.90;;;;;;5135990;27;20126;-48
2023/05/30 09:11:13;;;;;;;2.53;0.85;;;13.00;99.90;;;;;;5135166;27;20188;-48
2023/05/30 09:13:41;;;;;;;2.35;0.60;;;13.70;99.90;;;;;;5136104;27;20224;-48
2023/05/30 09:16:08;;;;;;;1.17;0.40;;;13.70;99.90;;;;;;5135335;27;20508;-47
2023/05/30 09:18:34;;;;;;;1.70;0.60;;;13.50;99.90;;;;;;5135186;27;20043;-49
2023/05/30 09:21:00;;;;;;;0.70;0.40;;;13.30;99.90;;;;;;5133698;27;21526;-51
2023/05/30 09:23:27;;;;;;;2.03;0.50;;;13.30;99.90;;;;;;5132783;27;20439;-49
2023/05/30 09:25:52;;;;;;;0.20;0.20;;;13.30;99.90;;;;;;5132797;27;20047;-48
2023/05/30 09:28:26;;;;;;;2.05;0.70;;;13.00;99.90;;;;;;5134841;27;20079;-49
2023/05/30 09:30:56;;;;;;;1.25;0.30;;;12.90;99.90;;;;;;5133373;27;20151;-47
2023/05/30 09:33:22;;;;;;;1.30;0.40;;;12.90;99.90;;;;;;5134024;27;20050;-48
2023/05/30 09:35:52;;;;;;;0.50;0.30;;;13.10;99.90;;;;;;5133560;27;20057;-51
2023/05/30 09:38:21;;;;;;;2.08;0.45;;;13.00;99.90;;;;;;5134069;27;20034;-51
2023/05/30 09:40:50;;;;;;;1.85;0.68;;;13.50;99.90;;;;;;5133693;27;20038;-49
2023/05/30 09:43:35;;;;;;;3.00;0.50;;;13.50;99.90;;;;;;5134739;27;20196;-49
2023/05/30 09:46:05;;;;;;;2.38;1.08;;;13.60;99.90;;;;;;5135070;27;20031;-48
2023/05/30 09:48:31;;;;;;;3.25;0.90;;;13.50;99.90;;;;;;5134307;27;20577;-50
2023/05/30 09:51:02;;;;;;;3.28;0.82;;;13.40;99.90;;;;;;5133717;27;20650;-49
2023/05/30 09:53:29;;;;;;;3.95;0.90;;;11.20;99.90;;;;;;5134567;27;20175;-50
2023/05/30 09:55:56;;;;;;;5.38;0.90;;;13.10;99.90;;;;;;5116811;27;20042;-47
2023/05/30 09:58:22;;;;;;;2.38;0.73;;;13.20;99.90;;;;;;5134139;27;20053;-48
2023/05/30 10:00:53;;;;;;;3.10;0.80;;;13.20;99.90;;;;;;5116477;27;20030;-49
2023/05/30 10:03:41;;;;;;;4.60;0.80;;;13.50;99.90;;;;;;5116674;27;20521;-47
2023/05/30 10:06:16;;;;;;;4.88;1.08;;;13.40;99.90;;;;;;5118110;27;20215;-51
2023/05/30 10:08:46;;;;;;;3.58;0.70;;;13.60;99.90;;;;;;5134692;27;20035;-50
2023/05/30 10:11:13;;;;;;;2.08;0.57;;;13.60;99.90;;;;;;5134836;27;20050;-51
2023/05/30 10:13:39;;;;;;;3.60;0.82;;;13.70;99.90;;;;;;5135038;27;20118;-49
2023/05/30 10:16:14;;;;;;;5.20;1.10;;;13.60;99.90;;;;;;5134575;27;20537;-48
2023/05/30 10:18:47;;;;;;;3.97;0.70;;;13.40;99.90;;;;;;5135308;27;20043;-49
2023/05/30 10:21:15;;;;;;;1.77;0.90;;;13.80;99.90;;;;;;5133345;27;20046;-52
2023/05/30 10:23:41;;;;;;;4.75;0.90;;;13.60;99.90;;;;;;5135940;27;20058;-47
2023/05/30 10:26:11;;;;;;;3.33;1.00;;;13.40;99.90;;;;;;5114741;27;20482;-48
2023/05/30 10:28:40;;;;;;;3.00;0.70;;;13.30;99.90;;;;;;5135408;27;20137;-47
2023/05/30 10:31:07;;;;;;;3.50;0.80;;;13.30;99.90;;;;;;5134944;27;20996;-50
2023/05/30 10:33:37;;;;;;;0.88;0.52;;;13.50;99.90;;;;;;5132611;27;20058;-48
2023/05/30 10:36:03;;;;;;;1.20;0.75;;;13.40;99.90;;;;;;5133982;27;20334;-49
2023/05/30 10:38:35;;;;;;;1.55;0.60;;;13.60;99.90;;;;;;5134542;27;20031;-52
2023/05/30 10:41:07;;;;;;;1.75;0.80;;;13.60;99.90;;;;;;5133899;27;20039;-51
2023/05/30 10:43:56;;;;;;;2.22;0.88;;;13.60;99.90;;;;;;5132322;27;20294;-52
2023/05/30 10:46:49;;;;;;;2.00;0.70;;;13.60;99.90;;;;;;5132681;27;20392;-51
2023/05/30 10:49:28;;;;;;;2.53;0.70;;;13.90;99.90;;;;;;5133525;27;20094;-50
2023/05/30 10:52:06;;;;;;;3.90;0.60;;;13.80;99.90;;;;;;5133680;27;20054;-47
2023/05/30 10:54:34;;;;;;;1.63;0.70;;;13.60;99.90;;;;;;5134421;27;20822;-50
2023/05/30 10:57:20;;;;;;;2.05;0.75;;;13.50;99.90;;;;;;5133585;27;20046;-49
2023/05/30 10:59:47;;;;;;;3.17;0.70;;;13.40;99.90;;;;;;5130710;27;20062;-48
2023/05/30 11:02:20;;;;;;;1.25;0.70;;;13.40;99.90;;;;;;5112825;27;20387;-52
2023/05/30 11:04:51;;;;;;;1.52;0.60;;;13.40;99.90;;;;;;5133154;27;20034;-52
2023/05/30 11:07:17;;;;;;;1.42;0.77;;;13.40;99.90;;;;;;5132041;27;20027;-51
2023/05/30 11:10:05;;;;;;;4.03;0.90;;;13.70;99.90;;;;;;5132371;27;20046;-52
2023/05/30 11:12:31;;;;;;;3.63;0.80;;;13.40;99.90;;;;;;5131369;27;20083;-52
2023/05/30 11:14:58;;;;;;;0.93;0.65;;;13.50;99.90;;;;;;5132705;27;20026;-51
2023/05/30 11:17:34;;;;;;;2.80;0.80;;;13.70;99.90;;;;;;5130770;27;20039;-51
2023/05/30 11:20:09;;;;;;;2.42;0.90;;;13.50;99.90;;;;;;5134041;27;20073;-60
2023/05/30 11:22:37;;;;;;;5.15;0.93;;;13.60;99.90;;;;;;5132697;27;20047;-52
2023/05/30 11:25:25;;;;;;;3.95;1.13;;;13.80;99.90;;;;;;5133203;27;20138;-53
2023/05/30 11:28:06;;;;;;;3.28;1.00;;;13.90;99.90;;;;;;5134429;27;20066;-53
2023/05/30 11:30:40;;;;;;;2.80;0.80;;;13.60;99.90;;;;;;5112176;27;20408;-54
2023/05/30 11:33:10;;;;;;;2.90;0.95;;;13.80;99.90;;;;;;5133208;27;20298;-52
2023/05/30 11:35:36;;;;;;;5.05;1.30;;;13.90;99.90;;;;;;5131972;27;20122;-54
2023/05/30 11:38:02;;;;;;;3.42;1.05;;;15.80;99.90;;;;;;5131611;27;20035;-53
2023/05/30 11:40:30;;;;;;;2.88;0.93;;;14.20;99.90;;;;;;5131252;27;20843;-53
2023/05/30 11:42:56;;;;;;;2.80;0.90;;;14.50;99.90;;;;;;5098832;27;20054;-51
2023/05/30 11:45:30;;;;;;;4.97;1.35;;;14.80;99.90;;;;;;5132280;27;20466;-53
2023/05/30 11:48:09;;;;;;;3.90;1.13;;;14.60;99.90;;;;;;5137522;27;20398;-52
2023/05/30 11:50:41;;;;;;;3.63;0.95;;;14.60;99.90;;;;;;5134288;27;20185;-52
2023/05/30 11:53:11;;;;;;;5.45;1.20;;;14.70;99.90;;;;;;5133507;27;20039;-53
2023/05/30 11:55:36;;;;;;;2.08;1.17;;;14.70;99.90;;;;;;5132776;27;20046;-50
2023/05/30 11:58:02;;;;;;;2.85;1.15;;;14.70;99.90;;;;;;5136297;27;20035;-52
2023/05/30 12:00:28;;;;;;;2.35;0.80;;;14.50;99.90;;;;;;5134890;27;20043;-53
2023/05/30 12:02:54;;;;;;;2.25;0.88;;;14.30;99.90;;;;;;5135327;27;20318;-53
2023/05/30 12:05:20;;;;;;;1.17;0.68;;;14.20;99.90;;;;;;5135608;27;20458;-53
2023/05/30 12:07:51;;;;;;;4.07;0.98;;;14.40;99.90;;;;;;5134138;27;20758;-50
2023/05/30 12:10:17;;;;;;;2.28;0.73;;;14.40;99.90;;;;;;5117717;27;20892;-53
2023/05/30 12:12:44;;;;;;;1.58;0.90;;;14.60;99.90;;;;;;5136426;27;20103;-51
2023/05/30 12:15:10;;;;;;;4.10;0.77;;;14.70;99.90;;;;;;5136692;27;20047;-50
2023/05/30 12:17:41;;;;;;;1.77;0.90;;;15.10;99.90;;;;;;5133810;27;20115;-53
2023/05/30 12:20:12;;;;;;;3.17;1.20;;;15.30;99.90;;;;;;5135105;27;20039;-53
2023/05/30 12:22:43;;;;;;;2.53;1.00;;;15.30;99.90;;;;;;5134999;27;20392;-50
2023/05/30 12:25:10;;;;;;;4.53;1.40;;;15.30;99.90;;;;;;5135002;27;20161;-52
2023/05/30 12:27:44;;;;;;;3.50;1.02;;;15.10;99.90;;;;;;5136780;27;20106;-53
2023/05/30 12:30:19;;;;;;;2.13;1.10;;;14.60;99.90;;;;;;5136007;27;20054;-53
2023/05/30 12:32:45;;;;;;;2.50;1.10;;;15.50;99.90;;;;;;5135647;27;20043;-51
2023/05/30 12:35:16;;;;;;;3.13;1.75;;;15.20;99.90;;;;;;5117401;27;20581;-52
2023/05/30 12:37:42;;;;;;;3.33;1.40;;;14.90;99.90;;;;;;5136582;27;20388;-53
2023/05/30 12:40:08;;;;;;;3.20;1.30;;;15.00;99.90;;;;;;5114789;27;20165;-51
2023/05/30 12:42:38;;;;;;;2.33;0.95;;;16.50;99.90;;;;;;5134838;27;20509;-51
2023/05/30 12:45:06;;;;;;;3.53;0.90;;;15.20;99.90;;;;;;5134508;27;20035;-53